sensor_id;sensor_type;location;lat;lon;timestamp;P1;durP1;ratioP1;P2;durP2;ratioP2
75885;SDS011;64561;44.018;10.144;2022-10-31T00:01:13;6.88;;;3.95;;
75885;SDS011;64561;44.018;10.144;2022-10-31T00:03:51;5.50;;;3.63;;
75885;SDS011;64561;44.018;10.144;2022-10-31T00:06:18;8.15;;;3.80;;
75885;SDS011;64561;44.018;10.144;2022-10-31T00:08:55;6.10;;;3.30;;
75885;SDS011;64561;44.018;10.144;2022-10-31T00:11:24;5.95;;;3.50;;
75885;SDS011;64561;44.018;10.144;2022-10-31T00:13:52;5.43;;;3.38;;
75885;SDS011;64561;44.018;10.144;2022-10-31T00:16:20;8.73;;;4.75;;
75885;SDS011;64561;44.018;10.144;2022-10-31T00:18:51;8.25;;;4.28;;
75885;SDS011;64561;44.018;10.144;2022-10-31T00:21:21;6.18;;;3.33;;
75885;SDS011;64561;44.018;10.144;2022-10-31T00:23:49;5.53;;;3.40;;
75885;SDS011;64561;44.018;10.144;2022-10-31T00:26:16;7.70;;;4.63;;
75885;SDS011;64561;44.018;10.144;2022-10-31T00:28:43;6.72;;;4.28;;
75885;SDS011;64561;44.018;10.144;2022-10-31T00:31:11;5.82;;;3.15;;
75885;SDS011;64561;44.018;10.144;2022-10-31T00:33:39;7.93;;;4.25;;
75885;SDS011;64561;44.018;10.144;2022-10-31T00:36:09;8.10;;;4.97;;
75885;SDS011;64561;44.018;10.144;2022-10-31T00:38:40;9.02;;;5.25;;
75885;SDS011;64561;44.018;10.144;2022-10-31T00:41:07;6.95;;;4.55;;
75885;SDS011;64561;44.018;10.144;2022-10-31T00:43:35;9.57;;;5.13;;
75885;SDS011;64561;44.018;10.144;2022-10-31T00:46:02;8.10;;;4.95;;
75885;SDS011;64561;44.018;10.144;2022-10-31T00:48:29;9.27;;;4.90;;
75885;SDS011;64561;44.018;10.144;2022-10-31T00:50:56;8.18;;;4.18;;
75885;SDS011;64561;44.018;10.144;2022-10-31T00:53:23;8.40;;;4.85;;
75885;SDS011;64561;44.018;10.144;2022-10-31T00:55:51;9.27;;;4.90;;
75885;SDS011;64561;44.018;10.144;2022-10-31T00:58:18;7.93;;;4.63;;
75885;SDS011;64561;44.018;10.144;2022-10-31T01:00:46;8.82;;;5.43;;
75885;SDS011;64561;44.018;10.144;2022-10-31T01:03:29;7.82;;;4.45;;
75885;SDS011;64561;44.018;10.144;2022-10-31T01:08:33;7.90;;;3.67;;
75885;SDS011;64561;44.018;10.144;2022-10-31T01:11:18;7.10;;;4.78;;
75885;SDS011;64561;44.018;10.144;2022-10-31T01:13:49;10.38;;;4.60;;
75885;SDS011;64561;44.018;10.144;2022-10-31T01:16:18;6.55;;;4.03;;
75885;SDS011;64561;44.018;10.144;2022-10-31T01:21:19;6.03;;;3.30;;
75885;SDS011;64561;44.018;10.144;2022-10-31T01:23:48;8.48;;;4.72;;
75885;SDS011;64561;44.018;10.144;2022-10-31T01:26:16;8.77;;;4.07;;
75885;SDS011;64561;44.018;10.144;2022-10-31T01:28:56;5.72;;;3.60;;
75885;SDS011;64561;44.018;10.144;2022-10-31T01:31:25;8.15;;;4.28;;
75885;SDS011;64561;44.018;10.144;2022-10-31T01:34:03;9.18;;;4.78;;
75885;SDS011;64561;44.018;10.144;2022-10-31T01:36:35;8.23;;;4.10;;
75885;SDS011;64561;44.018;10.144;2022-10-31T01:39:05;11.43;;;4.72;;
75885;SDS011;64561;44.018;10.144;2022-10-31T01:41:35;11.18;;;5.40;;
75885;SDS011;64561;44.018;10.144;2022-10-31T01:46:41;6.45;;;4.07;;
75885;SDS011;64561;44.018;10.144;2022-10-31T01:49:28;7.78;;;3.72;;
75885;SDS011;64561;44.018;10.144;2022-10-31T01:52:23;8.20;;;4.60;;
75885;SDS011;64561;44.018;10.144;2022-10-31T01:54:59;7.43;;;4.82;;
75885;SDS011;64561;44.018;10.144;2022-10-31T01:57:30;7.80;;;3.75;;
75885;SDS011;64561;44.018;10.144;2022-10-31T01:59:59;6.65;;;3.65;;
75885;SDS011;64561;44.018;10.144;2022-10-31T02:02:38;9.57;;;3.95;;
75885;SDS011;64561;44.018;10.144;2022-10-31T02:05:07;5.97;;;3.13;;
75885;SDS011;64561;44.018;10.144;2022-10-31T02:07:43;12.93;;;5.53;;
75885;SDS011;64561;44.018;10.144;2022-10-31T02:10:19;5.60;;;3.35;;
75885;SDS011;64561;44.018;10.144;2022-10-31T02:12:50;8.23;;;5.88;;
75885;SDS011;64561;44.018;10.144;2022-10-31T02:15:19;8.35;;;4.10;;
75885;SDS011;64561;44.018;10.144;2022-10-31T02:17:47;8.35;;;4.82;;
75885;SDS011;64561;44.018;10.144;2022-10-31T02:28:14;10.50;;;4.85;;
75885;SDS011;64561;44.018;10.144;2022-10-31T02:36:41;5.97;;;3.13;;
75885;SDS011;64561;44.018;10.144;2022-10-31T02:39:22;6.82;;;4.00;;
75885;SDS011;64561;44.018;10.144;2022-10-31T02:44:29;4.03;;;2.47;;
75885;SDS011;64561;44.018;10.144;2022-10-31T02:47:13;6.32;;;3.47;;
75885;SDS011;64561;44.018;10.144;2022-10-31T02:49:59;10.43;;;4.47;;
75885;SDS011;64561;44.018;10.144;2022-10-31T02:52:31;8.35;;;4.30;;
75885;SDS011;64561;44.018;10.144;2022-10-31T02:58:09;6.68;;;3.80;;
75885;SDS011;64561;44.018;10.144;2022-10-31T03:00:43;9.68;;;4.57;;
75885;SDS011;64561;44.018;10.144;2022-10-31T03:03:25;6.32;;;4.40;;
75885;SDS011;64561;44.018;10.144;2022-10-31T03:05:57;8.30;;;4.55;;
75885;SDS011;64561;44.018;10.144;2022-10-31T03:08:34;9.80;;;3.58;;
75885;SDS011;64561;44.018;10.144;2022-10-31T03:11:07;8.75;;;4.78;;
75885;SDS011;64561;44.018;10.144;2022-10-31T03:21:19;8.27;;;4.75;;
75885;SDS011;64561;44.018;10.144;2022-10-31T03:23:50;8.75;;;4.45;;
75885;SDS011;64561;44.018;10.144;2022-10-31T03:26:20;8.48;;;4.05;;
75885;SDS011;64561;44.018;10.144;2022-10-31T03:29:00;9.70;;;5.05;;
75885;SDS011;64561;44.018;10.144;2022-10-31T03:31:34;6.53;;;4.57;;
75885;SDS011;64561;44.018;10.144;2022-10-31T03:34:05;8.38;;;4.75;;
75885;SDS011;64561;44.018;10.144;2022-10-31T03:36:34;9.70;;;4.95;;
75885;SDS011;64561;44.018;10.144;2022-10-31T03:39:05;10.82;;;4.13;;
75885;SDS011;64561;44.018;10.144;2022-10-31T03:41:39;9.00;;;4.30;;
75885;SDS011;64561;44.018;10.144;2022-10-31T03:44:13;8.10;;;5.18;;
75885;SDS011;64561;44.018;10.144;2022-10-31T03:46:48;8.32;;;4.93;;
75885;SDS011;64561;44.018;10.144;2022-10-31T03:49:15;7.93;;;4.05;;
75885;SDS011;64561;44.018;10.144;2022-10-31T03:57:32;7.47;;;3.85;;
75885;SDS011;64561;44.018;10.144;2022-10-31T04:00:07;6.40;;;3.95;;
75885;SDS011;64561;44.018;10.144;2022-10-31T04:07:49;6.28;;;3.67;;
75885;SDS011;64561;44.018;10.144;2022-10-31T04:10:21;8.48;;;4.60;;
75885;SDS011;64561;44.018;10.144;2022-10-31T04:13:03;7.30;;;4.22;;
75885;SDS011;64561;44.018;10.144;2022-10-31T04:15:43;6.90;;;3.95;;
75885;SDS011;64561;44.018;10.144;2022-10-31T04:18:11;6.32;;;2.88;;
75885;SDS011;64561;44.018;10.144;2022-10-31T04:20:39;5.72;;;2.92;;
75885;SDS011;64561;44.018;10.144;2022-10-31T04:23:18;5.05;;;3.25;;
75885;SDS011;64561;44.018;10.144;2022-10-31T04:25:49;6.30;;;4.25;;
75885;SDS011;64561;44.018;10.144;2022-10-31T04:28:17;6.45;;;3.72;;
75885;SDS011;64561;44.018;10.144;2022-10-31T04:30:46;6.93;;;3.60;;
75885;SDS011;64561;44.018;10.144;2022-10-31T04:33:13;8.93;;;3.83;;
75885;SDS011;64561;44.018;10.144;2022-10-31T04:35:42;6.97;;;4.57;;
75885;SDS011;64561;44.018;10.144;2022-10-31T04:38:09;7.53;;;3.97;;
75885;SDS011;64561;44.018;10.144;2022-10-31T04:40:37;7.22;;;3.67;;
75885;SDS011;64561;44.018;10.144;2022-10-31T04:43:33;7.55;;;3.20;;
75885;SDS011;64561;44.018;10.144;2022-10-31T04:46:00;6.32;;;3.00;;
75885;SDS011;64561;44.018;10.144;2022-10-31T04:48:28;7.90;;;4.05;;
75885;SDS011;64561;44.018;10.144;2022-10-31T04:50:59;5.60;;;3.70;;
75885;SDS011;64561;44.018;10.144;2022-10-31T04:53:27;8.57;;;4.00;;
75885;SDS011;64561;44.018;10.144;2022-10-31T04:56:12;7.65;;;4.03;;
75885;SDS011;64561;44.018;10.144;2022-10-31T04:58:43;5.53;;;3.70;;
75885;SDS011;64561;44.018;10.144;2022-10-31T05:01:11;5.63;;;3.70;;
75885;SDS011;64561;44.018;10.144;2022-10-31T05:03:38;10.20;;;5.00;;
75885;SDS011;64561;44.018;10.144;2022-10-31T05:06:06;10.55;;;5.43;;
75885;SDS011;64561;44.018;10.144;2022-10-31T05:08:35;10.57;;;5.00;;
75885;SDS011;64561;44.018;10.144;2022-10-31T05:11:04;11.23;;;4.80;;
75885;SDS011;64561;44.018;10.144;2022-10-31T05:13:32;11.07;;;5.30;;
75885;SDS011;64561;44.018;10.144;2022-10-31T05:15:59;8.05;;;4.53;;
75885;SDS011;64561;44.018;10.144;2022-10-31T05:21:59;6.25;;;4.45;;
75885;SDS011;64561;44.018;10.144;2022-10-31T05:24:30;7.50;;;4.22;;
75885;SDS011;64561;44.018;10.144;2022-10-31T05:26:57;10.10;;;5.97;;
75885;SDS011;64561;44.018;10.144;2022-10-31T05:29:24;7.85;;;4.57;;
75885;SDS011;64561;44.018;10.144;2022-10-31T05:31:51;9.43;;;4.40;;
75885;SDS011;64561;44.018;10.144;2022-10-31T05:34:47;9.90;;;5.07;;
75885;SDS011;64561;44.018;10.144;2022-10-31T05:37:32;7.07;;;4.65;;
75885;SDS011;64561;44.018;10.144;2022-10-31T05:39:59;9.40;;;4.70;;
75885;SDS011;64561;44.018;10.144;2022-10-31T05:42:33;8.05;;;5.03;;
75885;SDS011;64561;44.018;10.144;2022-10-31T05:45:00;6.30;;;3.70;;
75885;SDS011;64561;44.018;10.144;2022-10-31T05:47:54;9.20;;;4.60;;
75885;SDS011;64561;44.018;10.144;2022-10-31T05:50:46;7.75;;;3.47;;
75885;SDS011;64561;44.018;10.144;2022-10-31T05:53:15;6.53;;;3.42;;
75885;SDS011;64561;44.018;10.144;2022-10-31T05:55:42;7.05;;;4.25;;
75885;SDS011;64561;44.018;10.144;2022-10-31T05:58:13;6.28;;;3.47;;
75885;SDS011;64561;44.018;10.144;2022-10-31T06:01:03;10.50;;;4.55;;
75885;SDS011;64561;44.018;10.144;2022-10-31T06:03:30;9.50;;;4.82;;
75885;SDS011;64561;44.018;10.144;2022-10-31T06:06:00;6.70;;;3.95;;
75885;SDS011;64561;44.018;10.144;2022-10-31T06:08:34;6.43;;;3.75;;
75885;SDS011;64561;44.018;10.144;2022-10-31T06:11:05;8.02;;;4.90;;
75885;SDS011;64561;44.018;10.144;2022-10-31T06:14:05;8.88;;;4.22;;
75885;SDS011;64561;44.018;10.144;2022-10-31T06:17:05;6.97;;;4.32;;
75885;SDS011;64561;44.018;10.144;2022-10-31T06:19:52;8.38;;;3.83;;
75885;SDS011;64561;44.018;10.144;2022-10-31T06:22:21;8.65;;;4.75;;
75885;SDS011;64561;44.018;10.144;2022-10-31T06:24:48;8.15;;;3.92;;
75885;SDS011;64561;44.018;10.144;2022-10-31T06:27:31;12.38;;;5.60;;
75885;SDS011;64561;44.018;10.144;2022-10-31T06:30:05;10.55;;;5.50;;
75885;SDS011;64561;44.018;10.144;2022-10-31T06:32:34;16.75;;;7.18;;
75885;SDS011;64561;44.018;10.144;2022-10-31T06:35:03;13.85;;;6.63;;
75885;SDS011;64561;44.018;10.144;2022-10-31T06:37:32;13.90;;;6.43;;
75885;SDS011;64561;44.018;10.144;2022-10-31T06:40:07;13.13;;;6.90;;
75885;SDS011;64561;44.018;10.144;2022-10-31T06:42:58;15.40;;;8.90;;
75885;SDS011;64561;44.018;10.144;2022-10-31T06:45:30;17.83;;;7.82;;
75885;SDS011;64561;44.018;10.144;2022-10-31T06:48:13;12.90;;;7.15;;
75885;SDS011;64561;44.018;10.144;2022-10-31T06:51:02;15.80;;;7.57;;
75885;SDS011;64561;44.018;10.144;2022-10-31T06:53:29;13.75;;;7.70;;
75885;SDS011;64561;44.018;10.144;2022-10-31T06:55:56;13.45;;;7.15;;
75885;SDS011;64561;44.018;10.144;2022-10-31T06:58:24;12.65;;;7.10;;
75885;SDS011;64561;44.018;10.144;2022-10-31T07:00:55;17.10;;;7.72;;
75885;SDS011;64561;44.018;10.144;2022-10-31T07:03:26;13.48;;;7.40;;
75885;SDS011;64561;44.018;10.144;2022-10-31T07:05:54;11.88;;;6.70;;
75885;SDS011;64561;44.018;10.144;2022-10-31T07:08:22;9.65;;;5.85;;
75885;SDS011;64561;44.018;10.144;2022-10-31T07:10:53;9.32;;;5.50;;
75885;SDS011;64561;44.018;10.144;2022-10-31T07:13:23;8.88;;;5.22;;
75885;SDS011;64561;44.018;10.144;2022-10-31T07:16:07;12.10;;;6.55;;
75885;SDS011;64561;44.018;10.144;2022-10-31T07:18:35;10.70;;;5.15;;
75885;SDS011;64561;44.018;10.144;2022-10-31T07:21:04;7.50;;;4.28;;
75885;SDS011;64561;44.018;10.144;2022-10-31T07:23:35;9.13;;;5.43;;
75885;SDS011;64561;44.018;10.144;2022-10-31T07:26:25;9.18;;;4.88;;
75885;SDS011;64561;44.018;10.144;2022-10-31T07:28:57;17.50;;;8.18;;
75885;SDS011;64561;44.018;10.144;2022-10-31T07:31:30;14.18;;;8.75;;
75885;SDS011;64561;44.018;10.144;2022-10-31T07:34:03;12.80;;;7.30;;
75885;SDS011;64561;44.018;10.144;2022-10-31T07:36:59;12.20;;;6.88;;
75885;SDS011;64561;44.018;10.144;2022-10-31T07:39:29;16.38;;;7.32;;
75885;SDS011;64561;44.018;10.144;2022-10-31T07:41:57;12.13;;;6.25;;
75885;SDS011;64561;44.018;10.144;2022-10-31T07:44:28;11.55;;;6.00;;
75885;SDS011;64561;44.018;10.144;2022-10-31T07:47:17;12.60;;;6.18;;
75885;SDS011;64561;44.018;10.144;2022-10-31T07:50:02;12.65;;;6.47;;
75885;SDS011;64561;44.018;10.144;2022-10-31T07:53:08;9.60;;;5.30;;
75885;SDS011;64561;44.018;10.144;2022-10-31T07:55:47;14.48;;;7.53;;
75885;SDS011;64561;44.018;10.144;2022-10-31T07:58:15;10.57;;;6.60;;
75885;SDS011;64561;44.018;10.144;2022-10-31T08:00:44;11.00;;;6.75;;
75885;SDS011;64561;44.018;10.144;2022-10-31T08:03:17;11.30;;;6.22;;
75885;SDS011;64561;44.018;10.144;2022-10-31T08:06:14;15.60;;;6.53;;
75885;SDS011;64561;44.018;10.144;2022-10-31T08:08:50;9.38;;;5.50;;
75885;SDS011;64561;44.018;10.144;2022-10-31T08:11:18;12.77;;;6.65;;
75885;SDS011;64561;44.018;10.144;2022-10-31T08:13:46;10.18;;;5.82;;
75885;SDS011;64561;44.018;10.144;2022-10-31T08:16:14;20.90;;;9.10;;
75885;SDS011;64561;44.018;10.144;2022-10-31T08:18:49;16.58;;;9.85;;
75885;SDS011;64561;44.018;10.144;2022-10-31T08:21:18;14.13;;;8.35;;
75885;SDS011;64561;44.018;10.144;2022-10-31T08:23:45;13.38;;;7.93;;
75885;SDS011;64561;44.018;10.144;2022-10-31T08:26:13;19.02;;;10.05;;
75885;SDS011;64561;44.018;10.144;2022-10-31T08:28:44;16.42;;;9.65;;
75885;SDS011;64561;44.018;10.144;2022-10-31T08:31:13;13.38;;;8.45;;
75885;SDS011;64561;44.018;10.144;2022-10-31T08:33:40;15.32;;;9.88;;
75885;SDS011;64561;44.018;10.144;2022-10-31T08:36:26;17.23;;;8.63;;
75885;SDS011;64561;44.018;10.144;2022-10-31T08:39:14;11.93;;;7.68;;
75885;SDS011;64561;44.018;10.144;2022-10-31T08:41:41;14.63;;;8.13;;
75885;SDS011;64561;44.018;10.144;2022-10-31T08:44:11;17.23;;;8.98;;
75885;SDS011;64561;44.018;10.144;2022-10-31T08:46:38;14.68;;;8.50;;
75885;SDS011;64561;44.018;10.144;2022-10-31T08:49:05;17.42;;;9.73;;
75885;SDS011;64561;44.018;10.144;2022-10-31T08:51:32;17.15;;;8.63;;
75885;SDS011;64561;44.018;10.144;2022-10-31T08:54:00;17.42;;;8.27;;
75885;SDS011;64561;44.018;10.144;2022-10-31T08:56:53;23.92;;;11.27;;
75885;SDS011;64561;44.018;10.144;2022-10-31T08:59:32;17.10;;;9.23;;
75885;SDS011;64561;44.018;10.144;2022-10-31T09:02:19;19.10;;;9.70;;
75885;SDS011;64561;44.018;10.144;2022-10-31T09:04:48;18.23;;;10.50;;
75885;SDS011;64561;44.018;10.144;2022-10-31T09:07:16;25.45;;;14.30;;
75885;SDS011;64561;44.018;10.144;2022-10-31T09:09:47;14.88;;;7.50;;
75885;SDS011;64561;44.018;10.144;2022-10-31T09:12:31;14.45;;;7.93;;
75885;SDS011;64561;44.018;10.144;2022-10-31T09:15:07;16.17;;;8.50;;
75885;SDS011;64561;44.018;10.144;2022-10-31T09:17:48;12.75;;;7.50;;
75885;SDS011;64561;44.018;10.144;2022-10-31T09:20:36;16.02;;;8.07;;
75885;SDS011;64561;44.018;10.144;2022-10-31T09:23:15;13.43;;;7.45;;
75885;SDS011;64561;44.018;10.144;2022-10-31T09:25:44;11.45;;;6.88;;
75885;SDS011;64561;44.018;10.144;2022-10-31T09:28:35;12.52;;;7.63;;
75885;SDS011;64561;44.018;10.144;2022-10-31T09:31:10;14.65;;;9.05;;
75885;SDS011;64561;44.018;10.144;2022-10-31T09:33:52;12.02;;;6.93;;
75885;SDS011;64561;44.018;10.144;2022-10-31T09:36:42;13.55;;;7.20;;
75885;SDS011;64561;44.018;10.144;2022-10-31T09:39:20;22.20;;;13.93;;
75885;SDS011;64561;44.018;10.144;2022-10-31T09:42:02;20.85;;;11.65;;
75885;SDS011;64561;44.018;10.144;2022-10-31T09:45:03;25.73;;;15.30;;
75885;SDS011;64561;44.018;10.144;2022-10-31T09:50:34;25.25;;;13.15;;
75885;SDS011;64561;44.018;10.144;2022-10-31T09:53:35;18.77;;;11.73;;
75885;SDS011;64561;44.018;10.144;2022-10-31T09:56:15;14.05;;;7.53;;
75885;SDS011;64561;44.018;10.144;2022-10-31T09:58:46;13.25;;;7.25;;
75885;SDS011;64561;44.018;10.144;2022-10-31T10:10:45;16.65;;;7.40;;
75885;SDS011;64561;44.018;10.144;2022-10-31T10:22:09;9.32;;;5.30;;
75885;SDS011;64561;44.018;10.144;2022-10-31T10:27:52;14.35;;;5.63;;
75885;SDS011;64561;44.018;10.144;2022-10-31T10:30:35;10.80;;;5.78;;
75885;SDS011;64561;44.018;10.144;2022-10-31T10:33:09;11.00;;;6.18;;
75885;SDS011;64561;44.018;10.144;2022-10-31T10:35:47;7.55;;;4.72;;
75885;SDS011;64561;44.018;10.144;2022-10-31T10:40:56;11.93;;;5.90;;
75885;SDS011;64561;44.018;10.144;2022-10-31T10:57:13;7.93;;;4.05;;
75885;SDS011;64561;44.018;10.144;2022-10-31T10:59:53;10.10;;;4.75;;
75885;SDS011;64561;44.018;10.144;2022-10-31T11:02:22;6.82;;;4.00;;
75885;SDS011;64561;44.018;10.144;2022-10-31T11:07:19;7.97;;;4.05;;
75885;SDS011;64561;44.018;10.144;2022-10-31T11:09:46;8.82;;;4.05;;
75885;SDS011;64561;44.018;10.144;2022-10-31T11:14:48;8.60;;;4.03;;
75885;SDS011;64561;44.018;10.144;2022-10-31T11:17:23;8.05;;;4.55;;
75885;SDS011;64561;44.018;10.144;2022-10-31T11:22:45;9.15;;;4.10;;
75885;SDS011;64561;44.018;10.144;2022-10-31T11:27:46;7.95;;;3.75;;
75885;SDS011;64561;44.018;10.144;2022-10-31T11:30:14;10.35;;;3.92;;
75885;SDS011;64561;44.018;10.144;2022-10-31T11:32:43;8.02;;;3.78;;
75885;SDS011;64561;44.018;10.144;2022-10-31T11:35:16;8.68;;;4.43;;
75885;SDS011;64561;44.018;10.144;2022-10-31T11:37:45;7.47;;;3.92;;
75885;SDS011;64561;44.018;10.144;2022-10-31T11:40:14;7.97;;;4.15;;
75885;SDS011;64561;44.018;10.144;2022-10-31T11:42:43;7.13;;;3.75;;
75885;SDS011;64561;44.018;10.144;2022-10-31T11:45:15;11.57;;;4.38;;
75885;SDS011;64561;44.018;10.144;2022-10-31T11:47:53;6.03;;;3.85;;
75885;SDS011;64561;44.018;10.144;2022-10-31T11:50:35;8.85;;;4.05;;
75885;SDS011;64561;44.018;10.144;2022-10-31T11:53:17;6.07;;;3.83;;
75885;SDS011;64561;44.018;10.144;2022-10-31T11:55:59;6.68;;;3.85;;
75885;SDS011;64561;44.018;10.144;2022-10-31T11:58:31;6.82;;;3.90;;
75885;SDS011;64561;44.018;10.144;2022-10-31T12:00:59;8.38;;;4.03;;
75885;SDS011;64561;44.018;10.144;2022-10-31T12:03:33;9.88;;;4.13;;
75885;SDS011;64561;44.018;10.144;2022-10-31T12:06:12;6.57;;;4.22;;
75885;SDS011;64561;44.018;10.144;2022-10-31T12:08:45;7.68;;;3.80;;
75885;SDS011;64561;44.018;10.144;2022-10-31T12:45:31;6.80;;;3.05;;
75885;SDS011;64561;44.018;10.144;2022-10-31T12:53:56;5.47;;;3.38;;
75885;SDS011;64561;44.018;10.144;2022-10-31T12:56:59;5.68;;;3.60;;
75885;SDS011;64561;44.018;10.144;2022-10-31T12:59:39;7.57;;;3.63;;
75885;SDS011;64561;44.018;10.144;2022-10-31T13:05:11;7.57;;;3.95;;
75885;SDS011;64561;44.018;10.144;2022-10-31T13:18:54;5.00;;;3.00;;
75885;SDS011;64561;44.018;10.144;2022-10-31T13:21:28;8.45;;;3.00;;
75885;SDS011;64561;44.018;10.144;2022-10-31T13:24:01;8.38;;;3.70;;
75885;SDS011;64561;44.018;10.144;2022-10-31T13:26:40;9.40;;;4.28;;
75885;SDS011;64561;44.018;10.144;2022-10-31T13:29:25;6.05;;;3.70;;
75885;SDS011;64561;44.018;10.144;2022-10-31T13:31:59;6.57;;;3.72;;
75885;SDS011;64561;44.018;10.144;2022-10-31T13:34:33;9.25;;;4.20;;
75885;SDS011;64561;44.018;10.144;2022-10-31T13:37:15;9.35;;;3.92;;
75885;SDS011;64561;44.018;10.144;2022-10-31T13:42:45;8.20;;;4.10;;
75885;SDS011;64561;44.018;10.144;2022-10-31T13:45:19;8.02;;;3.78;;
75885;SDS011;64561;44.018;10.144;2022-10-31T13:48:00;7.00;;;3.67;;
75885;SDS011;64561;44.018;10.144;2022-10-31T13:50:58;10.32;;;4.13;;
75885;SDS011;64561;44.018;10.144;2022-10-31T13:56:22;10.90;;;5.18;;
75885;SDS011;64561;44.018;10.144;2022-10-31T14:01:28;12.48;;;6.28;;
75885;SDS011;64561;44.018;10.144;2022-10-31T14:03:58;10.02;;;5.40;;
75885;SDS011;64561;44.018;10.144;2022-10-31T14:06:43;9.85;;;4.95;;
75885;SDS011;64561;44.018;10.144;2022-10-31T14:12:14;8.95;;;4.35;;
75885;SDS011;64561;44.018;10.144;2022-10-31T14:15:15;8.90;;;3.67;;
75885;SDS011;64561;44.018;10.144;2022-10-31T14:17:49;7.15;;;4.00;;
75885;SDS011;64561;44.018;10.144;2022-10-31T14:20:21;8.93;;;3.97;;
75885;SDS011;64561;44.018;10.144;2022-10-31T14:22:58;7.28;;;4.05;;
75885;SDS011;64561;44.018;10.144;2022-10-31T14:27:57;8.63;;;3.42;;
75885;SDS011;64561;44.018;10.144;2022-10-31T14:30:26;6.50;;;3.72;;
75885;SDS011;64561;44.018;10.144;2022-10-31T14:32:56;6.13;;;3.65;;
75885;SDS011;64561;44.018;10.144;2022-10-31T14:38:48;6.90;;;3.15;;
75885;SDS011;64561;44.018;10.144;2022-10-31T14:50:09;4.40;;;2.72;;
75885;SDS011;64561;44.018;10.144;2022-10-31T14:53:03;4.40;;;2.72;;
75885;SDS011;64561;44.018;10.144;2022-10-31T14:55:49;9.07;;;2.70;;
75885;SDS011;64561;44.018;10.144;2022-10-31T14:58:20;5.00;;;3.45;;
75885;SDS011;64561;44.018;10.144;2022-10-31T15:00:51;5.95;;;3.35;;
75885;SDS011;64561;44.018;10.144;2022-10-31T15:03:24;5.63;;;3.05;;
75885;SDS011;64561;44.018;10.144;2022-10-31T15:05:55;6.55;;;3.65;;
75885;SDS011;64561;44.018;10.144;2022-10-31T15:08:27;7.35;;;3.53;;
75885;SDS011;64561;44.018;10.144;2022-10-31T15:10:57;5.97;;;3.42;;
75885;SDS011;64561;44.018;10.144;2022-10-31T15:13:24;6.00;;;3.13;;
75885;SDS011;64561;44.018;10.144;2022-10-31T15:15:52;5.13;;;3.55;;
75885;SDS011;64561;44.018;10.144;2022-10-31T15:18:27;6.32;;;3.40;;
75885;SDS011;64561;44.018;10.144;2022-10-31T15:20:56;4.50;;;2.45;;
75885;SDS011;64561;44.018;10.144;2022-10-31T15:23:27;7.45;;;2.90;;
75885;SDS011;64561;44.018;10.144;2022-10-31T15:26:03;5.57;;;3.00;;
75885;SDS011;64561;44.018;10.144;2022-10-31T15:28:31;6.03;;;3.97;;
75885;SDS011;64561;44.018;10.144;2022-10-31T15:30:59;6.72;;;3.65;;
75885;SDS011;64561;44.018;10.144;2022-10-31T15:33:29;7.47;;;2.72;;
75885;SDS011;64561;44.018;10.144;2022-10-31T15:36:04;7.53;;;4.57;;
75885;SDS011;64561;44.018;10.144;2022-10-31T15:38:31;9.65;;;5.30;;
75885;SDS011;64561;44.018;10.144;2022-10-31T15:41:01;10.65;;;3.95;;
75885;SDS011;64561;44.018;10.144;2022-10-31T15:43:46;11.93;;;6.07;;
75885;SDS011;64561;44.018;10.144;2022-10-31T15:46:14;9.85;;;5.75;;
75885;SDS011;64561;44.018;10.144;2022-10-31T15:48:44;9.25;;;5.25;;
75885;SDS011;64561;44.018;10.144;2022-10-31T15:51:13;16.90;;;8.38;;
75885;SDS011;64561;44.018;10.144;2022-10-31T15:53:45;16.05;;;7.10;;
75885;SDS011;64561;44.018;10.144;2022-10-31T15:56:20;14.48;;;5.78;;
75885;SDS011;64561;44.018;10.144;2022-10-31T15:58:55;8.18;;;5.38;;
75885;SDS011;64561;44.018;10.144;2022-10-31T16:01:25;14.13;;;6.57;;
75885;SDS011;64561;44.018;10.144;2022-10-31T16:04:19;13.55;;;6.82;;
75885;SDS011;64561;44.018;10.144;2022-10-31T16:06:59;16.30;;;7.50;;
75885;SDS011;64561;44.018;10.144;2022-10-31T16:09:28;14.07;;;7.57;;
75885;SDS011;64561;44.018;10.144;2022-10-31T16:11:56;15.98;;;7.82;;
75885;SDS011;64561;44.018;10.144;2022-10-31T16:14:25;14.00;;;7.50;;
75885;SDS011;64561;44.018;10.144;2022-10-31T16:16:55;17.58;;;7.95;;
75885;SDS011;64561;44.018;10.144;2022-10-31T16:24:53;15.98;;;8.85;;
75885;SDS011;64561;44.018;10.144;2022-10-31T16:27:25;17.77;;;7.97;;
75885;SDS011;64561;44.018;10.144;2022-10-31T16:29:56;9.75;;;6.32;;
75885;SDS011;64561;44.018;10.144;2022-10-31T16:32:29;12.38;;;6.18;;
75885;SDS011;64561;44.018;10.144;2022-10-31T16:37:27;10.00;;;5.88;;
75885;SDS011;64561;44.018;10.144;2022-10-31T16:39:55;12.25;;;5.30;;
75885;SDS011;64561;44.018;10.144;2022-10-31T16:42:22;14.55;;;5.80;;
75885;SDS011;64561;44.018;10.144;2022-10-31T16:44:49;15.38;;;6.25;;
75885;SDS011;64561;44.018;10.144;2022-10-31T16:47:16;9.90;;;5.60;;
75885;SDS011;64561;44.018;10.144;2022-10-31T16:49:49;13.57;;;6.28;;
75885;SDS011;64561;44.018;10.144;2022-10-31T16:52:16;7.35;;;4.93;;
75885;SDS011;64561;44.018;10.144;2022-10-31T16:54:43;14.02;;;6.22;;
75885;SDS011;64561;44.018;10.144;2022-10-31T16:57:21;12.07;;;5.93;;
75885;SDS011;64561;44.018;10.144;2022-10-31T16:59:53;9.95;;;5.28;;
75885;SDS011;64561;44.018;10.144;2022-10-31T17:02:20;17.25;;;6.63;;
75885;SDS011;64561;44.018;10.144;2022-10-31T17:04:48;9.43;;;4.75;;
75885;SDS011;64561;44.018;10.144;2022-10-31T17:07:22;16.77;;;6.72;;
75885;SDS011;64561;44.018;10.144;2022-10-31T17:09:49;10.98;;;5.95;;
75885;SDS011;64561;44.018;10.144;2022-10-31T17:12:17;9.80;;;5.60;;
75885;SDS011;64561;44.018;10.144;2022-10-31T17:14:48;13.75;;;6.45;;
75885;SDS011;64561;44.018;10.144;2022-10-31T17:17:17;13.15;;;5.45;;
75885;SDS011;64561;44.018;10.144;2022-10-31T17:19:44;11.95;;;5.15;;
75885;SDS011;64561;44.018;10.144;2022-10-31T17:22:14;9.43;;;4.55;;
75885;SDS011;64561;44.018;10.144;2022-10-31T17:24:41;15.15;;;9.38;;
75885;SDS011;64561;44.018;10.144;2022-10-31T17:27:08;13.68;;;6.82;;
75885;SDS011;64561;44.018;10.144;2022-10-31T17:29:35;12.23;;;6.25;;
75885;SDS011;64561;44.018;10.144;2022-10-31T17:32:03;11.13;;;6.07;;
75885;SDS011;64561;44.018;10.144;2022-10-31T17:34:30;10.23;;;6.13;;
75885;SDS011;64561;44.018;10.144;2022-10-31T17:36:57;15.32;;;7.80;;
75885;SDS011;64561;44.018;10.144;2022-10-31T17:39:24;12.73;;;6.50;;
75885;SDS011;64561;44.018;10.144;2022-10-31T17:41:51;12.75;;;6.38;;
75885;SDS011;64561;44.018;10.144;2022-10-31T17:44:18;9.50;;;5.68;;
75885;SDS011;64561;44.018;10.144;2022-10-31T17:46:45;10.45;;;5.20;;
75885;SDS011;64561;44.018;10.144;2022-10-31T17:49:15;8.70;;;5.72;;
75885;SDS011;64561;44.018;10.144;2022-10-31T17:51:43;13.10;;;6.10;;
75885;SDS011;64561;44.018;10.144;2022-10-31T17:54:11;10.57;;;6.30;;
75885;SDS011;64561;44.018;10.144;2022-10-31T17:56:38;12.10;;;6.32;;
75885;SDS011;64561;44.018;10.144;2022-10-31T17:59:05;9.38;;;5.65;;
75885;SDS011;64561;44.018;10.144;2022-10-31T18:01:32;9.52;;;5.28;;
75885;SDS011;64561;44.018;10.144;2022-10-31T18:03:59;11.02;;;5.57;;
75885;SDS011;64561;44.018;10.144;2022-10-31T18:06:26;11.55;;;7.10;;
75885;SDS011;64561;44.018;10.144;2022-10-31T18:08:53;19.63;;;9.13;;
75885;SDS011;64561;44.018;10.144;2022-10-31T18:11:23;17.63;;;8.73;;
75885;SDS011;64561;44.018;10.144;2022-10-31T18:13:56;17.88;;;7.00;;